Time;durP1;ratioP1;P1;durP2;ratioP2;P2;SDS_P1;SDS_P2;PMS_P1;PMS_P2;Temp;Humidity;BMP_temperature;BMP_pressure;BME280_temperature;BME280_humidity;BME280_pressure;Samples;Min_cycle;Max_cycle;Signal;HPM_P1;HPM_P2
2022/12/04 00:02:12;;;;;;;1.90;1.80;;;;;;;2.50;72.49;101113.22;5160924;28;20029;-87
2022/12/04 00:04:43;;;;;;;1.23;1.23;;;;;;;2.46;73.50;101116.59;5200631;28;20025;-87
2022/12/04 00:07:13;;;;;;;4.82;1.73;;;;;;;2.57;73.43;101118.47;5180496;28;20030;-88
2022/12/04 00:09:44;;;;;;;3.63;3.33;;;;;;;2.47;73.13;101112.31;5181138;28;20022;-87
2022/12/04 00:12:14;;;;;;;2.78;2.58;;;;;;;2.44;73.11;101105.34;5194031;28;20457;-87
2022/12/04 00:14:45;;;;;;;2.40;1.83;;;;;;;2.40;73.61;101111.34;5184650;28;20055;-88
2022/12/04 00:17:15;;;;;;;2.55;2.35;;;;;;;2.29;73.95;101107.72;5192889;28;20029;-87
2022/12/04 00:19:46;;;;;;;0.93;0.93;;;;;;;2.27;73.98;101099.94;5185011;28;20036;-88
2022/12/04 00:22:16;;;;;;;2.72;2.30;;;;;;;2.40;73.57;101100.97;5180136;28;20055;-87
2022/12/04 00:24:47;;;;;;;1.92;1.77;;;;;;;2.33;73.21;101094.00;5195180;28;20052;-88
2022/12/04 00:27:17;;;;;;;0.73;0.73;;;;;;;2.27;74.01;101088.75;5195005;28;20025;-87
2022/12/04 00:29:48;;;;;;;2.75;2.55;;;;;;;2.29;73.69;101087.00;5203986;28;20034;-87
2022/12/04 00:32:18;;;;;;;1.83;1.65;;;;;;;2.31;73.48;101090.50;5190876;28;20109;-87
2022/12/04 00:34:52;;;;;;;1.15;1.15;;;;;;;2.29;73.31;101081.84;5195149;28;20131;-86
2022/12/04 00:37:22;;;;;;;1.05;1.05;;;;;;;2.32;74.04;101087.06;5195385;28;20025;-86
2022/12/04 00:39:53;;;;;;;3.53;3.22;;;;;;;2.29;73.81;101072.38;5202894;28;20136;-87
2022/12/04 00:42:23;;;;;;;1.98;1.88;;;;;;;2.35;73.47;101071.59;5197479;28;20037;-87
2022/12/04 00:44:53;;;;;;;1.48;1.40;;;;;;;2.31;73.85;101083.63;5203700;28;20148;-86
2022/12/04 00:47:24;;;;;;;3.92;2.35;;;;;;;2.40;73.47;101082.84;5180836;28;20478;-86
2022/12/04 00:49:55;;;;;;;1.80;1.70;;;;;;;2.25;73.55;101080.06;5181816;28;20067;-88
2022/12/04 00:52:27;;;;;;;2.15;1.95;;;;;;;2.31;72.81;101077.56;5177889;28;20231;-87
2022/12/04 00:54:57;;;;;;;5.68;5.00;;;;;;;2.24;73.98;101078.34;5181148;28;20036;-87
2022/12/04 00:57:28;;;;;;;2.22;2.03;;;;;;;2.36;73.61;101075.88;5176522;28;20403;-87
2022/12/04 00:59:58;;;;;;;1.85;1.75;;;;;;;2.28;73.89;101072.31;5180399;28;20434;-88
2022/12/04 01:02:29;;;;;;;5.75;2.47;;;;;;;2.12;74.69;101079.91;5200586;28;20215;-87
2022/12/04 01:05:01;;;;;;;1.85;1.75;;;;;;;2.30;74.05;101083.56;5166260;28;20545;-87
2022/12/04 01:07:32;;;;;;;1.88;1.33;;;;;;;2.16;74.70;101081.69;5191017;28;20130;-87
2022/12/04 01:10:04;;;;;;;15.07;3.13;;;;;;;2.16;74.38;101092.06;5182058;28;20077;-87
2022/12/04 01:12:35;;;;;;;2.53;2.42;;;;;;;2.11;74.61;101088.50;5193221;28;20037;-87
2022/12/04 01:15:06;;;;;;;3.45;3.25;;;;;;;2.00;75.10;101088.38;5192780;28;20733;-87
2022/12/04 01:17:37;;;;;;;4.88;1.35;;;;;;;2.09;74.52;101089.34;5192759;28;20529;-87
2022/12/04 01:20:08;;;;;;;2.33;2.15;;;;;;;1.99;74.92;101088.34;5181523;28;20037;-87
2022/12/04 01:22:38;;;;;;;1.65;1.60;;;;;;;2.10;74.91;101089.38;5197018;28;20025;-87
2022/12/04 01:25:09;;;;;;;1.90;1.75;;;;;;;2.12;74.37;101084.22;5215482;28;20028;-88
2022/12/04 01:27:40;;;;;;;2.78;1.35;;;;;;;2.12;74.13;101090.25;5205578;28;20111;-87
2022/12/04 01:30:11;;;;;;;1.00;1.00;;;;;;;2.15;73.92;101085.13;5197327;28;20443;-87
2022/12/04 01:32:41;;;;;;;2.45;2.35;;;;;;;2.10;73.96;101080.72;5179276;28;20095;-87
2022/12/04 01:35:12;;;;;;;1.02;1.02;;;;;;;2.11;73.96;101087.66;5208871;28;20010;-87
2022/12/04 01:37:42;;;;;;;1.50;1.45;;;;;;;2.10;74.23;101083.31;5197533;28;20077;-87
2022/12/04 01:40:14;;;;;;;0.82;0.82;;;;;;;2.15;74.75;101085.13;5217817;28;20088;-87
2022/12/04 01:42:45;;;;;;;2.58;2.42;;;;;;;2.24;73.38;101086.09;5204769;28;20049;-87
2022/12/04 01:45:28;;;;;;;1.77;1.70;;;;;;;2.14;74.27;101091.16;5238649;28;20042;-87
2022/12/04 01:48:14;;;;;;;0.60;0.60;;;;;;;2.17;74.33;101083.44;5237587;28;20093;-87
2022/12/04 01:50:47;;;;;;;2.47;2.28;;;;;;;2.30;73.70;101076.69;5218126;28;20105;-87
2022/12/04 01:53:18;;;;;;;2.72;2.53;;;;;;;2.22;73.72;101073.13;5203670;28;20048;-89
2022/12/04 01:55:49;;;;;;;3.25;2.35;;;;;;;2.02;74.83;101068.56;5182154;28;20034;-87
2022/12/04 01:58:24;;;;;;;1.27;1.23;;;;;;;2.01;74.56;101065.97;5181250;28;20386;-87
2022/12/04 02:01:00;;;;;;;3.05;2.85;;;;;;;2.02;74.74;101070.28;5173263;28;20021;-88
2022/12/04 02:03:30;;;;;;;1.25;1.25;;;;;;;2.04;74.36;101068.56;5178553;28;20052;-87
2022/12/04 02:06:01;;;;;;;1.27;1.27;;;;;;;2.00;74.47;101071.97;5177098;28;20042;-88
2022/12/04 02:08:33;;;;;;;2.38;2.22;;;;;;;2.09;74.53;101064.34;5181258;28;20468;-88
2022/12/04 02:11:15;;;;;;;0.75;0.75;;;;;;;2.05;74.04;101065.13;5191248;28;20068;-87
2022/12/04 02:14:00;;;;;;;1.38;1.38;;;;;;;2.09;74.04;101063.44;5191153;28;20582;-88
2022/12/04 02:16:42;;;;;;;1.48;1.42;;;;;;;2.13;74.21;101065.25;5179257;28;20040;-87
2022/12/04 02:19:31;;;;;;;1.92;1.80;;;;;;;1.96;75.04;101072.78;5195856;28;20064;-88
2022/12/04 02:22:10;;;;;;;2.03;1.08;;;;;;;1.86;75.44;101070.03;5179898;28;20037;-87
2022/12/04 02:24:58;;;;;;;1.25;1.25;;;;;;;2.06;74.31;101069.47;5193418;28;20038;-87
2022/12/04 02:27:37;;;;;;;1.30;1.30;;;;;;;1.95;75.04;101071.03;5179930;28;20037;-87
2022/12/04 02:30:12;;;;;;;1.55;1.45;;;;;;;2.06;74.58;101068.59;5180173;28;20046;-86
2022/12/04 02:32:47;;;;;;;2.92;2.17;;;;;;;2.10;74.04;101073.84;5198171;28;20051;-88
2022/12/04 02:35:43;;;;;;;2.70;2.60;;;;;;;2.22;74.19;101073.13;5178521;28;20025;-87
2022/12/04 02:38:43;;;;;;;1.90;1.83;;;;;;;2.16;73.61;101071.34;5197681;28;20049;-87
2022/12/04 02:41:33;;;;;;;3.42;2.33;;;;;;;2.10;74.11;101070.38;5200951;28;20025;-87
2022/12/04 02:44:21;;;;;;;3.38;3.03;;;;;;;2.12;74.04;101081.63;5177915;28;20045;-87
2022/12/04 02:47:00;;;;;;;0.95;0.95;;;;;;;2.13;73.79;101076.47;5197590;28;20057;-87
2022/12/04 02:49:43;;;;;;;0.70;0.70;;;;;;;2.02;74.26;101078.06;5204814;28;20044;-89
2022/12/04 02:52:21;;;;;;;2.55;2.35;;;;;;;2.10;74.78;101080.72;5181043;28;20037;-86
2022/12/04 02:54:59;;;;;;;1.80;1.70;;;;;;;2.13;74.15;101076.47;5192886;28;20033;-89
2022/12/04 02:57:34;;;;;;;4.68;4.22;;;;;;;2.17;73.92;101072.19;5197327;28;20049;-87
2022/12/04 03:00:08;;;;;;;2.33;2.22;;;;;;;2.12;74.57;101069.53;5180496;28;20025;-87
2022/12/04 03:03:01;;;;;;;2.58;2.47;;;;;;;2.15;74.50;101074.78;5197228;28;20033;-88
2022/12/04 03:05:40;;;;;;;4.10;3.35;;;;;;;2.19;73.88;101075.69;5177550;28;20080;-87
2022/12/04 03:08:15;;;;;;;5.78;3.65;;;;;;;2.22;73.44;101078.31;5176763;28;20040;-87
2022/12/04 03:10:52;;;;;;;1.40;1.40;;;;;;;2.28;73.47;101069.72;5182908;28;20057;-87
2022/12/04 03:13:33;;;;;;;3.60;1.85;;;;;;;2.24;73.91;101078.34;5180671;28;20051;-88
2022/12/04 03:16:38;;;;;;;3.28;3.08;;;;;;;2.24;74.12;101075.75;5194626;28;20076;-87
2022/12/04 03:19:14;;;;;;;1.23;1.23;;;;;;;2.14;74.36;101072.19;5180818;28;20124;-87
2022/12/04 03:21:52;;;;;;;0.90;0.90;;;;;;;2.19;74.40;101076.53;5178623;28;20036;-86
2022/12/04 03:24:28;;;;;;;3.88;2.90;;;;;;;2.31;73.76;101083.63;5166748;28;20050;-87
2022/12/04 03:27:27;;;;;;;1.52;1.42;;;;;;;2.20;74.15;101080.88;5192677;28;20573;-87
2022/12/04 03:30:06;;;;;;;2.53;2.28;;;;;;;2.24;73.58;101083.50;5182046;28;20056;-86
2022/12/04 03:32:52;;;;;;;1.85;1.77;;;;;;;2.25;73.55;101080.06;5179096;28;20037;-87
2022/12/04 03:35:28;;;;;;;1.80;1.13;;;;;;;2.27;73.81;101079.25;5197363;28;20160;-87
2022/12/04 03:38:16;;;;;;;0.85;0.85;;;;;;;2.30;73.87;101078.41;5204366;28;20041;-87
2022/12/04 03:40:47;;;;;;;1.58;1.48;;;;;;;2.25;73.94;101080.06;5162897;28;20041;-87
2022/12/04 03:43:26;;;;;;;2.28;2.17;;;;;;;2.18;74.29;101073.94;5178758;28;20064;-87
2022/12/04 03:46:02;;;;;;;4.13;3.05;;;;;;;2.13;74.24;101068.69;5163402;28;20072;-87
2022/12/04 03:48:42;;;;;;;2.53;2.33;;;;;;;2.22;73.84;101074.84;5207815;28;20033;-88
2022/12/04 03:51:15;;;;;;;2.72;2.55;;;;;;;2.29;73.93;101072.38;5222274;28;20040;-88
2022/12/04 03:54:01;;;;;;;1.23;1.23;;;;;;;2.27;73.89;101075.78;5191615;28;20049;-86
2022/12/04 03:56:37;;;;;;;2.47;1.45;;;;;;;2.32;73.71;101081.88;5180382;28;20235;-87
2022/12/04 03:59:14;;;;;;;1.33;1.33;;;;;;;2.27;73.79;101068.03;5193414;28;20121;-87
2022/12/04 04:01:49;;;;;;;2.42;2.28;;;;;;;2.24;73.51;101073.16;5178723;28;20056;-86
2022/12/04 04:04:48;;;;;;;1.90;1.80;;;;;;;2.25;74.02;101067.97;5190764;28;20073;-87
2022/12/04 04:07:40;;;;;;;1.05;1.05;;;;;;;2.17;73.67;101070.50;5190593;28;20041;-88
2022/12/04 04:10:17;;;;;;;3.00;1.58;;;;;;;2.23;73.92;101061.94;5194704;28;20029;-88
2022/12/04 04:24:39;;;;;;;2.20;1.95;;;;;;;2.26;74.11;101076.63;5178560;28;20115;-87
2022/12/04 04:27:10;;;;;;;1.10;1.10;;;;;;;2.20;73.76;101077.41;5201251;28;20033;-88
2022/12/04 04:29:43;;;;;;;3.92;1.30;;;;;;;2.32;73.85;101081.88;5190557;28;20036;-87
2022/12/04 04:32:37;;;;;;;2.38;1.85;;;;;;;2.33;73.49;101078.44;5192915;28;20030;-87
2022/12/04 04:35:47;;;;;;;1.67;1.58;;;;;;;2.31;73.96;101072.38;5180098;28;20033;-87
2022/12/04 04:38:30;;;;;;;1.45;1.45;;;;;;;2.35;73.61;101071.59;5175083;28;20044;-88
2022/12/04 04:41:23;;;;;;;2.85;2.58;;;;;;;2.30;73.55;101073.22;5161258;28;20396;-87
2022/12/04 04:44:03;;;;;;;2.10;2.00;;;;;;;2.31;73.72;101075.84;5179155;28;20044;-88
2022/12/04 04:46:40;;;;;;;1.92;1.83;;;;;;;2.20;74.21;101073.09;5179753;28;20037;-87
2022/12/04 04:49:13;;;;;;;1.85;1.75;;;;;;;2.31;73.65;101070.69;5194353;28;20060;-88
2022/12/04 04:51:45;;;;;;;1.05;1.05;;;;;;;2.33;73.72;101062.91;5179236;28;20072;-87
2022/12/04 04:54:16;;;;;;;2.30;2.20;;;;;;;2.33;73.89;101058.59;5178406;28;20657;-87
2022/12/04 04:56:47;;;;;;;2.28;2.17;;;;;;;2.38;73.28;101061.25;5189064;28;20033;-86
2022/12/04 04:59:17;;;;;;;2.78;2.67;;;;;;;2.27;73.65;101063.69;5159134;28;20037;-86
2022/12/04 05:01:48;;;;;;;2.67;2.05;;;;;;;2.29;73.82;101059.41;5170900;28;20029;-87
2022/12/04 05:04:18;;;;;;;1.17;1.17;;;;;;;2.26;73.82;101058.50;5191305;28;20052;-87
2022/12/04 05:06:49;;;;;;;1.40;1.30;;;;;;;2.30;73.48;101060.28;5180251;28;20044;-87
2022/12/04 05:09:19;;;;;;;2.17;1.38;;;;;;;2.26;73.58;101056.78;5181701;28;20045;-87
2022/12/04 05:11:50;;;;;;;2.40;2.25;;;;;;;2.04;74.18;101055.63;5173461;28;20061;-87
2022/12/04 05:14:21;;;;;;;0.60;0.60;;;;;;;2.00;74.42;101057.31;5181946;28;20431;-86
2022/12/04 05:16:51;;;;;;;4.82;2.25;;;;;;;2.13;74.19;101055.75;5182308;28;20831;-87
2022/12/04 05:22:12;;;;;;;3.00;2.75;;;;;;;2.17;74.12;101061.84;5172151;28;20026;-87
2022/12/04 05:24:42;;;;;;;2.00;1.90;;;;;;;2.11;73.67;101057.44;5176137;28;20037;-88
2022/12/04 05:27:13;;;;;;;1.63;1.52;;;;;;;2.11;74.48;101060.03;5175804;28;20478;-87
2022/12/04 05:29:44;;;;;;;7.03;4.00;;;;;;;2.23;73.74;101061.06;5178918;28;20493;-87
2022/12/04 05:32:14;;;;;;;1.02;1.02;;;;;;;2.26;74.18;101051.59;5193318;28;20025;-87
2022/12/04 05:34:49;;;;;;;2.20;2.10;;;;;;;2.26;73.96;101048.16;5183799;28;20025;-86
2022/12/04 05:37:20;;;;;;;1.85;1.75;;;;;;;2.27;73.85;101044.72;5187433;28;20083;-89
2022/12/04 05:39:50;;;;;;;3.35;3.10;;;;;;;2.29;73.71;101053.34;5188146;28;20026;-86
2022/12/04 05:42:21;;;;;;;1.30;1.30;;;;;;;2.17;73.95;101052.38;5179734;28;20036;-87
2022/12/04 05:44:51;;;;;;;1.08;1.08;;;;;;;2.29;73.46;101050.75;5190846;28;20045;-87
2022/12/04 05:47:22;;;;;;;1.48;1.48;;;;;;;2.17;73.37;101051.47;5199562;28;20440;-87
2022/12/04 05:49:52;;;;;;;2.42;2.13;;;;;;;2.01;74.73;101043.53;5190069;28;20025;-88
2022/12/04 05:52:23;;;;;;;2.10;1.95;;;;;;;2.23;73.78;101042.94;5180038;28;20040;-87
2022/12/04 05:54:53;;;;;;;1.13;1.13;;;;;;;2.13;73.56;101050.56;5189165;28;20034;-87
2022/12/04 05:57:24;;;;;;;4.10;3.33;;;;;;;2.03;74.00;101053.88;5201666;28;20057;-87
2022/12/04 05:59:54;;;;;;;0.88;0.88;;;;;;;2.15;74.17;101048.88;5180310;28;20033;-88
2022/12/04 06:02:24;;;;;;;1.13;1.13;;;;;;;2.11;74.29;101056.59;5173917;28;20579;-87
2022/12/04 06:04:55;;;;;;;1.33;1.33;;;;;;;2.06;74.04;101053.94;5177270;28;20044;-87
2022/12/04 06:07:25;;;;;;;1.88;1.77;;;;;;;2.03;74.16;101053.88;5158281;28;20025;-85
2022/12/04 06:09:56;;;;;;;5.43;4.35;;;;;;;2.03;74.74;101051.28;5177572;28;20039;-84
2022/12/04 06:12:26;;;;;;;1.80;1.70;;;;;;;2.04;74.38;101050.44;5193119;28;20033;-84
2022/12/04 06:14:57;;;;;;;2.45;2.35;;;;;;;2.13;74.38;101060.94;5197647;28;20034;-86
2022/12/04 06:17:27;;;;;;;2.08;1.98;;;;;;;2.02;74.39;101057.34;5178411;28;20171;-84
2022/12/04 06:19:58;;;;;;;2.92;2.45;;;;;;;2.13;74.10;101060.06;5178811;28;20030;-85
2022/12/04 06:22:29;;;;;;;0.60;0.60;;;;;;;2.12;74.04;101056.59;5194091;28;20075;-83
2022/12/04 06:24:59;;;;;;;1.33;1.25;;;;;;;1.87;74.54;101058.84;5180460;28;20112;-86
2022/12/04 06:27:30;;;;;;;2.05;1.95;;;;;;;1.85;74.99;101057.97;5188420;28;20459;-84
2022/12/04 06:30:01;;;;;;;1.73;1.63;;;;;;;1.93;74.58;101052.03;5196995;28;20514;-83
2022/12/04 06:32:31;;;;;;;0.52;0.52;;;;;;;1.77;74.60;101063.88;5191090;28;20041;-83
2022/12/04 06:35:03;;;;;;;3.42;2.28;;;;;;;1.92;73.92;101063.25;5193777;28;20064;-84
2022/12/04 06:37:33;;;;;;;3.97;3.75;;;;;;;1.77;74.42;101062.19;5158837;28;20057;-84
2022/12/04 06:40:04;;;;;;;0.57;0.57;;;;;;;1.64;74.24;101068.00;5194369;28;20036;-85
2022/12/04 06:42:35;;;;;;;1.80;1.58;;;;;;;1.73;73.58;101071.63;5155705;28;20122;-83
2022/12/04 06:45:06;;;;;;;2.60;2.47;;;;;;;1.62;74.25;101069.69;5197670;28;20038;-83
2022/12/04 06:47:36;;;;;;;2.60;2.40;;;;;;;1.62;73.15;101082.63;5194487;28;20045;-84
2022/12/04 06:50:07;;;;;;;3.45;1.92;;;;;;;1.75;74.12;101079.38;5175630;28;20038;-84
2022/12/04 06:52:38;;;;;;;2.60;1.17;;;;;;;1.85;73.81;101080.38;5176405;28;20351;-84
2022/12/04 06:55:08;;;;;;;2.13;1.95;;;;;;;1.59;73.31;101085.19;5196313;28;20025;-84
2022/12/04 06:57:39;;;;;;;0.70;0.70;;;;;;;1.64;73.62;101075.75;5179128;28;20033;-84
2022/12/04 07:00:10;;;;;;;2.92;2.72;;;;;;;1.68;73.66;101082.72;5177861;28;20501;-85
2022/12/04 07:02:40;;;;;;;1.80;1.70;;;;;;;1.73;73.72;101075.91;5191587;28;20415;-84
2022/12/04 07:05:11;;;;;;;0.90;0.90;;;;;;;1.81;73.62;101076.03;5176847;28;20296;-85
2022/12/04 07:07:41;;;;;;;0.82;0.82;;;;;;;1.48;73.36;101077.25;5195379;28;20045;-84
2022/12/04 07:10:11;;;;;;;2.33;2.15;;;;;;;1.53;72.61;101079.03;5175711;28;20112;-84
2022/12/04 07:12:42;;;;;;;2.35;2.15;;;;;;;1.55;72.76;101069.59;5183765;28;20037;-85
2022/12/04 07:15:12;;;;;;;0.70;0.70;;;;;;;1.61;72.53;101070.56;5189268;28;20068;-85
2022/12/04 07:17:43;;;;;;;0.30;0.30;;;;;;;1.62;72.12;101069.69;5192797;28;20057;-85
2022/12/04 07:20:13;;;;;;;0.77;0.77;;;;;;;1.54;72.99;101080.78;5188276;28;20033;-85
2022/12/04 07:22:44;;;;;;;0.75;0.73;;;;;;;1.48;72.82;101083.28;5191312;28;20033;-85
2022/12/04 07:25:15;;;;;;;0.50;0.50;;;;;;;1.56;72.92;101089.44;5189408;28;20037;-85
2022/12/04 07:27:45;;;;;;;1.90;1.73;;;;;;;1.55;72.83;101094.59;5189575;28;20550;-84
2022/12/04 07:30:16;;;;;;;1.42;1.30;;;;;;;1.59;72.97;101091.19;5162595;28;20037;-84
2022/12/04 07:32:46;;;;;;;0.90;0.90;;;;;;;1.44;71.87;101084.09;5186756;28;20180;-83
2022/12/04 07:35:17;;;;;;;1.30;1.27;;;;;;;1.47;72.41;101084.13;5190666;28;20036;-85
2022/12/04 07:37:47;;;;;;;0.47;0.47;;;;;;;1.44;72.26;101097.03;5175878;28;20061;-84
2022/12/04 07:40:18;;;;;;;0.90;0.90;;;;;;;1.57;72.66;101095.50;5175010;28;20043;-84
2022/12/04 07:42:48;;;;;;;0.55;0.55;;;;;;;1.49;71.63;101103.13;5177153;28;20037;-84
2022/12/04 07:45:19;;;;;;;0.52;0.52;;;;;;;1.51;71.82;101106.63;5177582;28;20038;-84
2022/12/04 07:47:50;;;;;;;1.10;1.10;;;;;;;1.49;72.11;101107.44;5164109;28;20087;-84
2022/12/04 07:50:20;;;;;;;0.85;0.85;;;;;;;1.36;71.87;101096.88;5191892;28;20033;-84
2022/12/04 07:52:51;;;;;;;0.90;0.90;;;;;;;1.42;71.76;101096.13;5177843;28;20075;-84
2022/12/04 07:55:21;;;;;;;1.23;1.23;;;;;;;1.39;72.67;101096.06;5197632;28;20025;-83
2022/12/04 07:57:52;;;;;;;2.30;2.10;;;;;;;1.44;71.96;101099.59;5169794;28;20025;-82
2022/12/04 08:00:22;;;;;;;2.08;1.98;;;;;;;1.46;72.49;101107.38;5186674;28;20052;-82
2022/12/04 08:02:56;;;;;;;0.77;0.77;;;;;;;1.48;72.35;101109.13;5190221;28;20063;-82
2022/12/04 08:05:26;;;;;;;0.60;0.60;;;;;;;1.54;72.34;101111.81;5198988;28;20026;-85
2022/12/04 08:07:57;;;;;;;0.50;0.50;;;;;;;1.54;72.02;101109.22;5168158;28;20037;-85
2022/12/04 08:10:30;;;;;;;2.05;1.95;;;;;;;1.51;72.60;101108.31;5183481;28;20036;-82
2022/12/04 08:13:01;;;;;;;;;;;;;;;1.48;72.69;101106.56;5172681;28;20037;-84
2022/12/04 08:15:33;;;;;;;0.52;0.52;;;;;;;1.60;72.63;101105.03;5185584;28;19917;-84
2022/12/04 08:18:07;;;;;;;1.15;1.15;;;;;;;1.59;72.67;101105.88;5171552;28;20117;-83
2022/12/04 08:20:37;;;;;;;;;;;;;;;1.68;72.54;101113.78;5166445;28;20400;-84
2022/12/04 08:23:07;;;;;;;4.18;2.70;;;;;;;1.51;72.59;101109.19;5188305;28;19971;-83
2022/12/04 08:25:39;;;;;;;1.17;1.17;;;;;;;1.72;72.03;101110.38;5170850;28;20041;-85
2022/12/04 08:28:10;;;;;;;0.30;0.30;;;;;;;1.57;72.05;101106.72;5168051;28;20041;-83
2022/12/04 08:30:41;;;;;;;1.77;1.67;;;;;;;1.44;73.26;101098.72;5187856;28;20025;-84
2022/12/04 08:33:11;;;;;;;0.93;0.93;;;;;;;1.55;72.84;101108.38;5171287;28;20349;-85
2022/12/04 08:35:42;;;;;;;2.15;1.70;;;;;;;1.66;72.65;101105.13;5174242;28;20033;-85
2022/12/04 08:38:12;;;;;;;1.45;1.35;;;;;;;1.70;73.10;101115.53;5197012;28;20103;-84
2022/12/04 08:40:43;;;;;;;1.58;1.48;;;;;;;1.71;72.78;101109.53;5185464;28;20036;-86
2022/12/04 08:43:13;;;;;;;0.60;0.60;;;;;;;1.80;72.98;101107.91;5191481;28;20052;-84
2022/12/04 08:45:43;;;;;;;0.82;0.82;;;;;;;1.90;73.05;101107.22;5162255;28;20039;-84
2022/12/04 08:48:14;;;;;;;1.27;1.17;;;;;;;1.87;72.66;101105.44;5190773;28;20251;-83
2022/12/04 08:50:45;;;;;;;0.85;0.85;;;;;;;1.89;72.51;101111.50;5187391;28;20118;-84
2022/12/04 08:53:15;;;;;;;0.50;0.50;;;;;;;1.96;72.41;101109.88;5167595;28;20179;-86
2022/12/04 08:55:46;;;;;;;2.95;2.75;;;;;;;2.06;72.26;101120.38;5189684;28;20029;-85
2022/12/04 08:58:17;;;;;;;0.88;0.88;;;;;;;2.02;72.46;101111.69;5186221;28;20076;-83
2022/12/04 09:00:48;;;;;;;2.55;2.17;;;;;;;1.95;72.55;101107.25;5189847;28;20493;-84
2022/12/04 09:03:20;;;;;;;0.50;0.50;;;;;;;2.07;72.59;101111.78;5176651;28;20152;-83
2022/12/04 09:05:50;;;;;;;1.08;1.08;;;;;;;2.18;72.60;101116.25;5158942;28;20071;-83
2022/12/04 09:08:20;;;;;;;0.70;0.70;;;;;;;2.16;72.20;101112.75;5176640;28;20041;-85
2022/12/04 09:10:51;;;;;;;1.23;1.23;;;;;;;2.07;71.95;101104.00;5176634;28;20041;-84
2022/12/04 09:13:21;;;;;;;1.50;1.50;;;;;;;2.14;71.83;101104.09;5194185;28;20267;-84
2022/12/04 09:15:52;;;;;;;0.80;0.80;;;;;;;2.22;71.75;101108.50;5191150;28;20074;-84
2022/12/04 09:18:23;;;;;;;0.93;0.93;;;;;;;2.14;72.20;101105.81;5188092;28;20097;-86
2022/12/04 09:20:58;;;;;;;1.65;1.15;;;;;;;2.19;72.29;101105.00;5194188;28;20060;-86
2022/12/04 09:23:28;;;;;;;1.05;1.05;;;;;;;2.26;72.33;101102.53;5184220;28;20324;-85
2022/12/04 09:25:59;;;;;;;0.50;0.50;;;;;;;2.27;72.42;101099.09;5197171;28;20502;-85
2022/12/04 09:28:30;;;;;;;3.92;1.48;;;;;;;2.31;72.22;101111.22;5196246;28;20044;-85
2022/12/04 09:31:03;;;;;;;1.92;1.83;;;;;;;2.40;71.64;101116.53;5193168;28;20030;-83
2022/12/04 09:33:34;;;;;;;0.65;0.65;;;;;;;2.32;72.02;101112.97;5193961;28;20105;-85
2022/12/04 09:36:05;;;;;;;1.40;1.35;;;;;;;2.25;72.00;101116.31;5180306;28;20117;-85
2022/12/04 09:38:35;;;;;;;1.00;1.00;;;;;;;2.38;72.25;101122.53;5191424;28;20029;-83
2022/12/04 09:41:24;;;;;;;1.92;1.83;;;;;;;2.32;71.82;101123.31;5202291;28;20038;-84
2022/12/04 09:44:04;;;;;;;1.48;1.38;;;;;;;2.35;72.08;101125.97;5181397;28;20612;-83
2022/12/04 09:47:01;;;;;;;0.70;0.70;;;;;;;2.12;70.54;101123.91;5175978;28;20039;-85
2022/12/04 09:49:40;;;;;;;3.05;2.80;;;;;;;2.32;72.24;101124.19;5173738;28;20042;-88
2022/12/04 09:52:41;;;;;;;1.27;1.23;;;;;;;2.32;72.02;101128.50;5181631;28;20040;-84
2022/12/04 09:55:19;;;;;;;0.73;0.73;;;;;;;2.35;71.33;101133.72;5152882;28;20056;-85
2022/12/04 09:57:52;;;;;;;0.70;0.70;;;;;;;2.36;70.51;101135.44;5173127;28;20094;-85
2022/12/04 10:00:22;;;;;;;1.05;0.98;;;;;;;2.44;71.48;101128.66;5160745;28;20080;-83
2022/12/04 10:03:14;;;;;;;0.30;0.30;;;;;;;2.55;71.30;101131.41;5215373;28;20048;-82
2022/12/04 10:06:03;;;;;;;0.82;0.82;;;;;;;2.50;71.23;101130.44;5222062;28;20121;-82
2022/12/04 10:08:59;;;;;;;0.63;0.63;;;;;;;2.59;71.11;101119.34;5171480;28;20076;-85
2022/12/04 10:11:41;;;;;;;0.50;0.50;;;;;;;2.56;71.36;101122.78;5173967;28;20076;-85
2022/12/04 10:14:30;;;;;;;0.73;0.73;;;;;;;2.48;71.02;101127.84;5192850;28;20048;-84
2022/12/04 10:17:13;;;;;;;1.42;1.33;;;;;;;2.51;70.90;101124.41;5209956;28;20429;-83
2022/12/04 10:20:02;;;;;;;0.45;0.45;;;;;;;2.44;70.93;101118.28;5175316;28;20045;-83
2022/12/04 10:22:41;;;;;;;1.92;1.75;;;;;;;2.56;70.94;101121.91;5191386;28;20172;-83
2022/12/04 10:25:21;;;;;;;0.88;0.88;;;;;;;2.57;70.59;101113.28;5174996;28;20087;-84
2022/12/04 10:27:54;;;;;;;0.45;0.45;;;;;;;2.54;71.24;101118.41;5188177;28;20040;-83
2022/12/04 10:30:28;;;;;;;1.52;1.50;;;;;;;2.58;71.12;101109.84;5158860;28;20040;-83
2022/12/04 10:33:12;;;;;;;0.88;0.88;;;;;;;2.51;71.26;101103.69;5209307;28;20038;-83
2022/12/04 10:35:46;;;;;;;3.95;2.60;;;;;;;2.63;71.21;101113.34;5187804;28;20601;-84
2022/12/04 10:38:33;;;;;;;1.33;1.27;;;;;;;2.61;71.12;101109.84;5176628;28;20084;-85
2022/12/04 10:41:16;;;;;;;1.20;1.20;;;;;;;2.56;70.85;101101.16;5193072;28;20503;-83
2022/12/04 10:43:48;;;;;;;1.17;1.17;;;;;;;2.63;70.93;101102.97;5207046;28;20042;-83
2022/12/04 10:46:30;;;;;;;0.98;0.98;;;;;;;2.63;70.58;101097.78;5189991;28;20296;-82
2022/12/04 10:49:11;;;;;;;1.30;1.25;;;;;;;2.62;70.50;101098.63;5175080;28;20498;-82
2022/12/04 10:51:42;;;;;;;1.80;1.70;;;;;;;2.50;69.73;101102.84;5180756;28;20083;-85
2022/12/04 10:54:18;;;;;;;0.63;0.63;;;;;;;2.48;70.24;101094.19;5187697;28;20092;-83
2022/12/04 10:57:10;;;;;;;1.10;1.10;;;;;;;2.58;70.21;101091.69;5194096;28;20037;-83
2022/12/04 10:59:54;;;;;;;0.63;0.63;;;;;;;2.54;70.63;101092.50;5171569;28;20096;-82
2022/12/04 11:02:28;;;;;;;0.65;0.65;;;;;;;2.51;70.17;101089.03;5190740;28;20470;-84
2022/12/04 11:05:06;;;;;;;0.98;0.95;;;;;;;2.66;70.48;101077.13;5176573;28;20029;-84
2022/12/04 11:07:46;;;;;;;1.67;1.58;;;;;;;2.69;71.05;101077.13;5190814;28;20120;-84
2022/12/04 11:10:31;;;;;;;0.88;0.88;;;;;;;2.49;69.96;101069.13;5192877;28;20529;-85
2022/12/04 11:13:15;;;;;;;0.93;0.93;;;;;;;2.60;70.72;101082.25;5209243;28;20136;-85
2022/12/04 11:15:50;;;;;;;4.95;3.13;;;;;;;2.58;71.09;101076.16;5177328;28;20455;-86
2022/12/04 11:18:22;;;;;;;0.65;0.65;;;;;;;2.59;70.79;101063.22;5190063;28;20183;-83
2022/12/04 11:21:17;;;;;;;1.27;1.27;;;;;;;2.56;70.16;101062.31;5175840;28;20218;-86
2022/12/04 11:23:50;;;;;;;0.68;0.68;;;;;;;2.70;70.77;101057.28;5178608;28;20487;-86
2022/12/04 11:26:36;;;;;;;0.40;0.40;;;;;;;2.63;70.82;101061.53;5190356;28;20045;-86
2022/12/04 11:29:13;;;;;;;0.55;0.55;;;;;;;2.50;69.75;101065.69;5158817;28;20116;-84
2022/12/04 11:31:51;;;;;;;0.60;0.60;;;;;;;2.19;69.83;101063.59;5191879;28;20478;-85
2022/12/04 11:34:28;;;;;;;0.40;0.40;;;;;;;2.36;71.15;101055.16;5191502;28;20458;-84
2022/12/04 11:36:59;;;;;;;0.40;0.40;;;;;;;2.48;71.20;101052.72;5192437;28;20061;-85
2022/12/04 11:39:40;;;;;;;0.57;0.57;;;;;;;2.57;70.83;101051.97;5195509;28;20073;-84
2022/12/04 11:42:16;;;;;;;0.75;0.75;;;;;;;2.55;70.35;101057.97;5173681;28;20026;-84
2022/12/04 11:45:18;;;;;;;3.00;2.80;;;;;;;2.52;70.05;101058.81;5174645;28;20037;-85
2022/12/04 11:48:14;;;;;;;0.68;0.68;;;;;;;2.61;70.71;101052.84;5192275;28;20188;-84
2022/12/04 11:50:53;;;;;;;1.02;1.02;;;;;;;2.64;70.64;101042.53;5182462;28;20543;-84
2022/12/04 11:53:56;;;;;;;0.60;0.60;;;;;;;2.31;69.28;101054.25;5191414;28;20049;-87
2022/12/04 11:56:44;;;;;;;1.17;1.17;;;;;;;2.45;69.45;101047.50;5162516;28;20103;-85
2022/12/04 11:59:17;;;;;;;7.93;1.63;;;;;;;2.54;70.32;101045.88;5190663;28;20245;-83
2022/12/04 12:01:57;;;;;;;0.80;0.80;;;;;;;2.51;69.33;101049.31;5191752;28;20498;-83
2022/12/04 12:05:05;;;;;;;1.40;1.38;;;;;;;2.46;69.94;101043.22;5175547;28;20319;-84
2022/12/04 12:07:47;;;;;;;0.70;0.70;;;;;;;2.46;69.80;101038.88;5193068;28;20049;-84
2022/12/04 12:10:56;;;;;;;3.47;1.58;;;;;;;2.42;70.65;101047.50;5173223;28;20033;-83
2022/12/04 12:13:51;;;;;;;1.33;1.23;;;;;;;2.47;70.69;101042.38;5173650;28;20039;-84
2022/12/04 12:16:31;;;;;;;3.83;2.15;;;;;;;2.54;70.44;101045.88;5191618;28;20014;-83
2022/12/04 12:19:23;;;;;;;1.20;1.20;;;;;;;2.57;70.68;101053.69;5156214;28;20041;-84
2022/12/04 12:21:58;;;;;;;0.65;0.60;;;;;;;2.51;70.82;101047.59;5191203;28;20021;-84
2022/12/04 12:24:39;;;;;;;1.05;1.05;;;;;;;2.62;71.17;101049.41;5193507;28;20034;-84
2022/12/04 12:27:33;;;;;;;2.58;2.38;;;;;;;2.69;70.62;101056.41;5173264;28;20075;-83
2022/12/04 12:30:08;;;;;;;0.38;0.38;;;;;;;2.57;69.29;101049.38;5191735;28;20359;-85